Time;durP1;ratioP1;P1;durP2;ratioP2;P2;SDS_P1;SDS_P2;PMS_P1;PMS_P2;Temp;Humidity;BMP_temperature;BMP_pressure;BME280_temperature;BME280_humidity;BME280_pressure;Samples;Min_cycle;Max_cycle;Signal;HPM_P1;HPM_P2
2022/03/29 00:01:05;;;;;;;2.50;2.30;;;23.40;51.60;;;;;;5028305;28;20176;-88
2022/03/29 00:03:37;;;;;;;3.30;2.10;;;23.40;51.60;;;;;;5012641;28;20448;-88
2022/03/29 00:06:03;;;;;;;2.90;2.30;;;23.40;51.60;;;;;;5028245;28;20467;-88
2022/03/29 00:08:32;;;;;;;2.23;2.03;;;23.40;51.60;;;;;;5023563;28;20456;-88
2022/03/29 00:10:58;;;;;;;2.70;2.13;;;23.40;51.60;;;;;;5030184;28;20427;-88
2022/03/29 00:13:25;;;;;;;2.30;2.10;;;23.40;51.60;;;;;;5026121;28;20441;-88
2022/03/29 00:15:51;;;;;;;2.20;2.00;;;23.30;51.50;;;;;;5017227;28;20483;-88
2022/03/29 00:18:16;;;;;;;1.93;1.80;;;23.30;51.50;;;;;;5028837;28;20495;-88
2022/03/29 00:20:42;;;;;;;2.07;1.90;;;23.30;51.50;;;;;;5028199;28;20195;-88
2022/03/29 00:23:08;;;;;;;2.20;1.70;;;23.40;52.20;;;;;;5029511;28;20172;-88
2022/03/29 00:25:34;;;;;;;2.33;2.13;;;23.40;51.60;;;;;;5028073;28;20219;-87
2022/03/29 00:28:00;;;;;;;2.57;2.07;;;23.40;51.60;;;;;;5011794;28;20451;-87
2022/03/29 00:30:29;;;;;;;2.20;2.00;;;23.30;51.60;;;;;;5007309;28;20197;-87
2022/03/29 00:32:55;;;;;;;2.13;1.70;;;23.40;51.60;;;;;;5025134;28;20422;-88
2022/03/29 00:36:09;;;;;;;2.00;1.80;;;23.40;51.70;;;;;;5025988;28;20762;-87
2022/03/29 00:38:35;;;;;;;2.40;2.20;;;23.40;51.60;;;;;;5033967;28;20448;-87
2022/03/29 00:41:02;;;;;;;2.57;2.20;;;23.30;51.60;;;;;;5008124;28;20463;-87
2022/03/29 00:43:30;;;;;;;2.23;1.80;;;23.30;51.60;;;;;;5008358;28;20451;-88
2022/03/29 00:45:59;;;;;;;2.20;2.00;;;23.30;51.60;;;;;;5028432;28;20423;-88
2022/03/29 00:48:25;;;;;;;2.03;1.83;;;23.30;51.60;;;;;;5018786;28;20436;-88
2022/03/29 00:50:53;;;;;;;2.50;2.30;;;23.30;51.60;;;;;;5022196;28;20484;-88
2022/03/29 00:53:24;;;;;;;2.30;1.90;;;23.30;51.70;;;;;;5025423;28;20457;-88
2022/03/29 00:55:50;;;;;;;2.10;1.90;;;23.30;51.70;;;;;;5028179;28;20466;-87
2022/03/29 00:58:18;;;;;;;2.47;2.10;;;23.30;51.70;;;;;;5025780;28;20454;-87
2022/03/29 01:00:58;;;;;;;2.63;2.13;;;23.30;51.70;;;;;;5021663;28;20447;-88
2022/03/29 01:03:24;;;;;;;2.20;1.80;;;23.30;51.70;;;;;;5025372;28;20454;-87
2022/03/29 01:05:56;;;;;;;2.10;1.90;;;23.30;51.70;;;;;;5014895;28;20435;-89
2022/03/29 01:11:45;;;;;;;2.10;1.90;;;23.30;51.70;;;;;;5021988;28;20436;-88
2022/03/29 01:17:39;;;;;;;2.83;2.27;;;23.30;51.70;;;;;;5023237;28;20524;-89
2022/03/29 01:20:09;;;;;;;2.43;2.00;;;23.30;51.70;;;;;;5028004;28;20490;-88
2022/03/29 01:22:38;;;;;;;2.57;2.30;;;23.30;51.70;;;;;;5021912;28;20424;-89
2022/03/29 01:25:06;;;;;;;2.40;2.10;;;23.30;51.70;;;;;;5033793;28;20463;-88
2022/03/29 01:27:33;;;;;;;2.90;2.27;;;23.30;51.70;;;;;;5031194;28;20493;-89
2022/03/29 01:30:02;;;;;;;2.30;2.10;;;23.30;51.70;;;;;;5032092;28;20450;-88
2022/03/29 01:32:29;;;;;;;2.20;1.90;;;23.30;51.60;;;;;;5030986;28;20423;-89
2022/03/29 01:34:57;;;;;;;1.87;1.77;;;23.30;51.60;;;;;;5031468;28;20435;-89
2022/03/29 01:37:24;;;;;;;2.17;1.97;;;23.30;51.60;;;;;;5031144;28;20458;-88
2022/03/29 01:39:56;;;;;;;2.33;2.00;;;23.30;51.60;;;;;;5013991;28;20423;-88
2022/03/29 01:42:22;;;;;;;2.30;2.10;;;23.30;51.60;;;;;;5026858;28;20918;-88
2022/03/29 01:44:48;;;;;;;2.57;2.30;;;23.30;51.60;;;;;;4994475;28;20440;-89
2022/03/29 01:47:20;;;;;;;2.37;2.13;;;23.30;51.60;;;;;;4994909;28;20428;-89
2022/03/29 01:49:46;;;;;;;2.27;1.97;;;23.30;51.60;;;;;;5011977;28;20435;-89
2022/03/29 01:55:34;;;;;;;2.87;2.30;;;23.30;51.60;;;;;;5011622;28;20482;-88
2022/03/29 02:01:22;;;;;;;2.67;2.47;;;23.30;51.60;;;;;;5006012;28;20383;-88
2022/03/29 02:03:48;;;;;;;2.20;1.97;;;23.30;51.70;;;;;;4990479;28;20425;-88
2022/03/29 02:06:15;;;;;;;3.63;1.90;;;23.30;51.60;;;;;;5017861;28;20416;-88
2022/03/29 02:08:41;;;;;;;1.77;1.63;;;23.20;51.60;;;;;;5002387;28;20176;-89
2022/03/29 02:11:08;;;;;;;2.07;1.80;;;23.30;51.70;;;;;;4997245;28;20505;-88
2022/03/29 02:13:34;;;;;;;1.97;1.80;;;23.30;51.60;;;;;;5015092;28;20216;-88
2022/03/29 02:16:00;;;;;;;2.20;2.00;;;23.30;51.60;;;;;;5031406;28;20463;-88
2022/03/29 02:18:28;;;;;;;2.30;2.10;;;23.30;51.60;;;;;;5038221;28;20408;-89
2022/03/29 02:20:55;;;;;;;2.27;1.87;;;23.30;51.60;;;;;;5032978;28;20415;-89
2022/03/29 02:23:21;;;;;;;2.03;1.60;;;23.30;51.60;;;;;;5033263;28;20419;-89
2022/03/29 02:25:47;;;;;;;3.50;1.70;;;23.30;51.60;;;;;;5022619;28;20440;-88
2022/03/29 02:28:14;;;;;;;2.30;1.70;;;23.30;51.60;;;;;;5027423;28;20177;-89
2022/03/29 02:30:40;;;;;;;2.30;2.00;;;23.30;51.50;;;;;;5010889;28;20412;-88
2022/03/29 02:36:28;;;;;;;2.87;1.80;;;23.30;51.50;;;;;;5011358;28;20482;-88
2022/03/29 02:38:55;;;;;;;2.20;2.00;;;23.30;51.60;;;;;;5010429;28;20452;-89
2022/03/29 02:41:22;;;;;;;3.47;2.30;;;23.30;51.60;;;;;;5010713;28;20188;-88
2022/03/29 02:43:48;;;;;;;2.80;1.73;;;23.30;51.60;;;;;;5010716;28;20416;-87
2022/03/29 02:46:14;;;;;;;2.03;1.70;;;23.30;51.60;;;;;;5010693;28;20475;-88
2022/03/29 02:48:39;;;;;;;2.27;2.07;;;23.30;51.60;;;;;;5010210;28;20177;-88
2022/03/29 02:51:08;;;;;;;2.40;2.10;;;23.30;51.60;;;;;;5010788;28;20181;-89
2022/03/29 02:53:34;;;;;;;2.30;2.10;;;23.30;51.60;;;;;;5009766;28;20181;-88
2022/03/29 02:56:01;;;;;;;1.67;1.57;;;23.30;51.50;;;;;;5010416;28;20467;-89
2022/03/29 02:58:27;;;;;;;2.13;1.93;;;23.30;51.50;;;;;;5013759;28;20436;-89
2022/03/29 03:04:15;;;;;;;1.80;1.70;;;23.30;51.50;;;;;;5002322;28;20216;-89
2022/03/29 03:06:43;;;;;;;2.10;1.90;;;23.30;51.50;;;;;;5027724;28;20424;-88
2022/03/29 03:09:09;;;;;;;1.87;1.67;;;23.30;51.60;;;;;;5010306;28;20420;-88
2022/03/29 03:11:36;;;;;;;2.20;2.00;;;23.20;51.50;;;;;;4997801;28;20549;-88
2022/03/29 03:14:03;;;;;;;1.90;1.70;;;23.30;51.50;;;;;;5021109;28;20538;-89
2022/03/29 03:16:29;;;;;;;2.37;2.17;;;23.30;51.50;;;;;;5039493;28;20455;-89
2022/03/29 03:18:55;;;;;;;2.27;1.83;;;23.30;51.50;;;;;;5010386;28;20469;-89
2022/03/29 03:21:21;;;;;;;2.13;1.70;;;23.30;51.50;;;;;;5003565;28;20421;-89
2022/03/29 03:23:51;;;;;;;2.47;1.73;;;23.30;51.50;;;;;;5016627;28;20427;-88
2022/03/29 03:26:16;;;;;;;2.00;1.67;;;23.30;51.50;;;;;;5015481;28;20264;-89
2022/03/29 03:28:42;;;;;;;2.00;1.73;;;23.30;51.50;;;;;;5023525;28;20455;-88
2022/03/29 03:31:08;;;;;;;3.17;1.63;;;23.30;51.50;;;;;;5019457;28;20208;-89
2022/03/29 03:33:34;;;;;;;2.23;2.03;;;23.30;51.50;;;;;;5021864;28;20192;-89
2022/03/29 03:36:01;;;;;;;2.50;2.03;;;23.30;51.50;;;;;;5023205;28;20207;-88
2022/03/29 03:38:27;;;;;;;1.90;1.70;;;23.30;51.50;;;;;;5018610;28;20184;-89
2022/03/29 03:40:55;;;;;;;2.23;2.03;;;23.30;51.50;;;;;;5017574;28;20419;-89
2022/03/29 03:43:21;;;;;;;2.10;1.90;;;23.30;51.50;;;;;;5022468;28;20196;-89
2022/03/29 03:45:47;;;;;;;2.20;1.70;;;23.30;51.50;;;;;;5005843;28;20423;-88
2022/03/29 03:48:13;;;;;;;2.10;1.90;;;23.30;51.50;;;;;;5021799;28;20421;-89
2022/03/29 03:50:40;;;;;;;2.20;2.00;;;23.30;51.50;;;;;;5023550;28;20416;-88
2022/03/29 03:53:06;;;;;;;1.90;1.53;;;23.30;51.50;;;;;;5022793;28;20422;-89
2022/03/29 03:55:32;;;;;;;1.50;1.37;;;23.30;51.50;;;;;;5022004;28;20432;-89
2022/03/29 03:58:20;;;;;;;2.03;1.80;;;23.30;51.50;;;;;;5023213;28;20180;-88
2022/03/29 04:00:46;;;;;;;2.07;1.80;;;23.30;51.50;;;;;;5023632;28;20187;-89
2022/03/29 04:03:12;;;;;;;1.90;1.70;;;23.30;51.50;;;;;;5021765;28;20419;-89
2022/03/29 04:05:38;;;;;;;2.60;2.20;;;23.30;51.50;;;;;;5035648;28;20210;-89
2022/03/29 04:11:26;;;;;;;2.47;2.17;;;23.30;51.50;;;;;;5018980;28;20232;-88
2022/03/29 04:13:53;;;;;;;2.03;1.70;;;23.30;51.50;;;;;;5022380;28;20444;-88
2022/03/29 04:16:20;;;;;;;1.97;1.80;;;23.20;51.50;;;;;;5021675;28;20208;-88
2022/03/29 04:18:46;;;;;;;2.03;1.70;;;23.20;51.50;;;;;;5038227;28;20466;-89
2022/03/29 04:21:12;;;;;;;2.50;2.20;;;23.20;51.50;;;;;;5022430;28;20780;-89
2022/03/29 04:23:38;;;;;;;2.07;1.87;;;23.20;51.50;;;;;;5035495;28;20416;-88
2022/03/29 04:26:05;;;;;;;1.70;1.60;;;23.30;51.60;;;;;;5026837;28;20415;-89
2022/03/29 04:28:31;;;;;;;2.00;1.80;;;23.30;51.60;;;;;;5022548;28;20185;-89
2022/03/29 04:30:59;;;;;;;1.80;1.70;;;23.20;51.50;;;;;;5024969;28;20415;-88
2022/03/29 04:33:26;;;;;;;1.80;1.70;;;23.30;51.60;;;;;;5018119;28;20439;-89
2022/03/29 04:35:53;;;;;;;3.17;2.37;;;23.30;51.60;;;;;;5012417;28;20466;-89
2022/03/29 04:38:19;;;;;;;2.20;2.00;;;23.30;51.60;;;;;;5005886;28;20432;-89
2022/03/29 04:40:46;;;;;;;1.63;1.53;;;23.30;51.60;;;;;;5033654;28;20935;-89
2022/03/29 04:43:11;;;;;;;2.00;1.80;;;23.30;51.50;;;;;;5017677;28;20427;-89
2022/03/29 04:45:42;;;;;;;2.67;1.90;;;23.20;51.50;;;;;;5019388;28;21011;-89
2022/03/29 04:48:09;;;;;;;2.23;1.73;;;23.30;51.50;;;;;;5012108;28;20173;-88
2022/03/29 04:50:36;;;;;;;2.23;1.77;;;23.30;51.50;;;;;;5018551;28;20440;-88
2022/03/29 04:53:02;;;;;;;1.80;1.50;;;23.30;51.50;;;;;;5026478;28;20446;-89
2022/03/29 04:55:28;;;;;;;2.00;1.80;;;23.30;51.50;;;;;;5020412;28;20435;-88
2022/03/29 04:58:39;;;;;;;1.60;1.50;;;23.20;51.40;;;;;;5024184;28;20239;-89
2022/03/29 05:01:06;;;;;;;2.27;1.77;;;23.30;51.40;;;;;;5019984;28;20434;-89
2022/03/29 05:03:33;;;;;;;3.33;2.00;;;23.30;51.50;;;;;;5017486;28;20440;-89
2022/03/29 05:05:59;;;;;;;2.43;2.10;;;23.20;51.40;;;;;;5025923;28;20433;-89
2022/03/29 05:08:24;;;;;;;2.00;1.80;;;23.30;51.50;;;;;;5017301;28;20801;-89
2022/03/29 05:10:52;;;;;;;1.93;1.67;;;23.30;51.50;;;;;;5021512;28;20418;-88
2022/03/29 05:13:20;;;;;;;1.93;1.80;;;23.30;51.50;;;;;;5011576;28;20189;-90
2022/03/29 05:15:49;;;;;;;2.17;1.97;;;23.20;51.40;;;;;;5026193;28;20470;-89
2022/03/29 05:18:17;;;;;;;2.20;2.00;;;23.20;51.40;;;;;;5022983;28;20945;-89
2022/03/29 05:20:43;;;;;;;2.30;1.80;;;23.30;51.40;;;;;;5015486;28;20886;-89
2022/03/29 05:23:10;;;;;;;2.00;1.80;;;23.30;51.40;;;;;;5018733;28;20432;-89
2022/03/29 05:25:36;;;;;;;2.13;1.93;;;23.30;51.40;;;;;;5029345;28;20416;-90
2022/03/29 05:28:03;;;;;;;2.60;1.83;;;23.30;51.40;;;;;;5026616;28;20455;-89
2022/03/29 05:30:29;;;;;;;2.03;1.87;;;23.30;51.40;;;;;;5024244;28;20438;-90
2022/03/29 05:32:57;;;;;;;1.93;1.80;;;23.30;51.40;;;;;;5021431;28;20431;-89
2022/03/29 05:35:29;;;;;;;1.70;1.60;;;23.30;51.40;;;;;;5021936;28;20411;-89
2022/03/29 05:37:55;;;;;;;2.00;1.80;;;23.30;51.40;;;;;;5014019;28;20416;-93
2022/03/29 05:40:21;;;;;;;2.17;1.97;;;23.30;51.40;;;;;;5023146;28;20447;-88
2022/03/29 05:42:47;;;;;;;2.40;2.00;;;23.30;51.40;;;;;;5024887;28;20489;-89
2022/03/29 05:45:13;;;;;;;3.20;2.20;;;23.30;51.40;;;;;;4998975;28;20182;-89
2022/03/29 05:50:31;;;;;;;2.20;2.00;;;23.30;51.40;;;;;;5019534;28;20414;-89
2022/03/29 05:52:57;;;;;;;2.07;1.87;;;23.30;51.40;;;;;;5021997;28;20416;-89
2022/03/29 05:55:24;;;;;;;2.10;1.80;;;23.30;51.40;;;;;;5008354;28;20492;-89
2022/03/29 05:57:51;;;;;;;1.90;1.80;;;23.30;51.40;;;;;;5002987;28;20420;-89
2022/03/29 06:00:24;;;;;;;3.60;2.20;;;23.30;51.30;;;;;;5008117;28;20496;-89
2022/03/29 06:02:53;;;;;;;2.30;2.10;;;23.30;51.30;;;;;;5008573;28;20416;-89
2022/03/29 06:05:20;;;;;;;1.87;1.67;;;23.30;51.30;;;;;;5008837;28;20416;-89
2022/03/29 06:07:50;;;;;;;1.90;1.70;;;23.30;51.30;;;;;;5007808;28;20411;-90
2022/03/29 06:10:16;;;;;;;2.20;2.00;;;23.30;51.40;;;;;;5007786;28;20432;-89
2022/03/29 06:12:46;;;;;;;3.50;1.83;;;23.30;51.40;;;;;;5007866;28;20487;-90
2022/03/29 06:15:13;;;;;;;2.53;2.33;;;23.30;51.40;;;;;;5008712;28;20420;-90
2022/03/29 06:17:39;;;;;;;2.30;1.93;;;23.30;51.40;;;;;;5009051;28;20468;-90
2022/03/29 06:20:07;;;;;;;3.07;2.00;;;23.30;51.40;;;;;;5009702;28;20434;-90
2022/03/29 06:22:39;;;;;;;3.00;2.33;;;23.30;51.40;;;;;;5008821;28;20253;-89
2022/03/29 06:25:06;;;;;;;2.40;2.00;;;23.30;51.40;;;;;;5008221;28;20464;-89
2022/03/29 06:27:32;;;;;;;2.30;2.10;;;23.30;51.40;;;;;;5009232;28;20428;-89
2022/03/29 06:29:58;;;;;;;2.30;2.10;;;23.30;51.40;;;;;;5008657;28;20427;-89
2022/03/29 06:32:24;;;;;;;4.47;2.07;;;23.30;51.40;;;;;;5007876;28;20204;-89
2022/03/29 06:34:49;;;;;;;2.77;2.10;;;23.30;51.40;;;;;;5023953;28;20185;-89
2022/03/29 06:37:16;;;;;;;2.63;2.33;;;23.40;51.40;;;;;;5007242;28;20506;-89
2022/03/29 06:39:43;;;;;;;3.97;1.90;;;23.40;51.50;;;;;;5008195;28;20204;-89
2022/03/29 06:42:09;;;;;;;2.60;2.27;;;23.30;51.90;;;;;;5008021;28;20527;-89
2022/03/29 06:47:58;;;;;;;2.80;2.57;;;23.40;51.40;;;;;;5000965;28;20391;-89
2022/03/29 06:50:24;;;;;;;3.50;2.03;;;23.30;51.40;;;;;;5008685;28;20413;-90
2022/03/29 06:52:50;;;;;;;3.13;2.00;;;23.30;51.40;;;;;;5007184;28;20407;-89
2022/03/29 06:55:18;;;;;;;2.70;2.20;;;23.30;51.40;;;;;;5024543;28;20431;-89
2022/03/29 06:57:44;;;;;;;2.67;1.90;;;23.30;51.40;;;;;;5007824;28;20177;-89
2022/03/29 07:00:10;;;;;;;2.37;2.17;;;23.30;51.40;;;;;;5009626;28;20419;-89
2022/03/29 07:02:37;;;;;;;2.37;2.00;;;23.30;51.40;;;;;;5012516;28;20409;-90
2022/03/29 07:05:04;;;;;;;2.40;2.20;;;23.30;51.40;;;;;;5012606;28;20412;-89
2022/03/29 07:13:37;;;;;;;2.67;2.07;;;23.30;51.40;;;;;;5013345;28;20419;-89
2022/03/29 07:16:11;;;;;;;2.50;1.93;;;23.30;51.50;;;;;;5012865;28;20456;-89
2022/03/29 07:18:37;;;;;;;2.30;1.90;;;23.30;51.40;;;;;;5013407;28;20424;-90
2022/03/29 07:21:03;;;;;;;2.40;1.97;;;23.30;51.40;;;;;;5011254;28;20417;-89
2022/03/29 07:23:32;;;;;;;2.70;2.30;;;23.30;51.40;;;;;;5015789;28;20169;-89
2022/03/29 07:25:58;;;;;;;2.30;2.10;;;23.30;51.40;;;;;;4994407;28;20177;-89
2022/03/29 07:28:23;;;;;;;2.40;2.20;;;23.30;51.40;;;;;;5010745;28;20416;-89
2022/03/29 07:30:50;;;;;;;2.37;2.17;;;23.30;51.40;;;;;;5009726;28;20455;-89
2022/03/29 07:33:19;;;;;;;2.20;1.67;;;23.30;51.40;;;;;;5009373;28;20189;-89
2022/03/29 07:35:47;;;;;;;4.20;2.33;;;23.30;51.40;;;;;;5009314;28;20464;-89
2022/03/29 07:38:16;;;;;;;3.03;2.70;;;23.40;51.40;;;;;;5010349;28;20913;-89
2022/03/29 07:40:43;;;;;;;2.80;2.03;;;23.30;51.40;;;;;;5011063;28;20418;-89
2022/03/29 07:43:11;;;;;;;2.87;2.33;;;23.30;51.40;;;;;;5009939;28;20926;-89
2022/03/29 07:45:37;;;;;;;3.10;1.97;;;23.30;51.40;;;;;;5009846;28;20416;-90
2022/03/29 07:48:03;;;;;;;2.00;1.80;;;23.30;51.30;;;;;;5009493;28;20431;-90
2022/03/29 07:50:31;;;;;;;2.47;2.27;;;23.40;51.40;;;;;;5010547;28;20424;-89
2022/03/29 07:52:59;;;;;;;2.63;1.97;;;23.40;51.40;;;;;;5009134;28;20419;-89
2022/03/29 07:55:25;;;;;;;2.33;2.10;;;23.30;51.30;;;;;;5026769;28;20424;-89
2022/03/29 07:57:52;;;;;;;1.87;1.67;;;23.40;51.40;;;;;;5009527;28;20426;-89
2022/03/29 08:00:32;;;;;;;2.10;1.87;;;23.40;51.40;;;;;;5010039;28;20456;-89
2022/03/29 08:03:04;;;;;;;1.80;1.70;;;23.40;51.40;;;;;;5009539;28;20483;-90
2022/03/29 08:05:31;;;;;;;2.80;2.30;;;23.30;51.30;;;;;;5010489;28;20400;-89
2022/03/29 08:07:58;;;;;;;2.40;2.20;;;23.40;51.40;;;;;;5009303;28;20428;-89
2022/03/29 08:10:25;;;;;;;2.40;2.20;;;23.40;51.40;;;;;;5010372;28;20407;-89
2022/03/29 08:12:51;;;;;;;2.17;1.97;;;23.40;51.40;;;;;;5009627;28;20432;-90
2022/03/29 08:15:17;;;;;;;2.20;1.80;;;23.40;51.40;;;;;;5010982;28;20439;-89
2022/03/29 08:17:43;;;;;;;2.47;2.27;;;23.40;51.40;;;;;;5010109;28;20714;-89
2022/03/29 08:20:09;;;;;;;2.03;1.80;;;23.40;51.40;;;;;;5009062;28;20190;-89
2022/03/29 08:22:35;;;;;;;2.70;2.10;;;23.30;51.90;;;;;;5009530;28;20178;-89
2022/03/29 08:25:03;;;;;;;1.87;1.67;;;23.40;51.40;;;;;;5011247;28;20404;-88
2022/03/29 08:27:28;;;;;;;2.33;1.83;;;23.40;51.40;;;;;;5008613;28;20431;-90
2022/03/29 08:29:54;;;;;;;2.60;2.40;;;23.40;51.40;;;;;;5010262;28;20420;-89
2022/03/29 08:32:20;;;;;;;1.90;1.70;;;23.40;51.40;;;;;;5009092;28;20189;-89
2022/03/29 08:34:46;;;;;;;2.73;1.50;;;23.30;51.80;;;;;;5025388;28;20435;-89
2022/03/29 08:37:12;;;;;;;2.60;2.13;;;23.30;51.30;;;;;;5010188;28;20197;-89
2022/03/29 08:39:38;;;;;;;2.63;1.77;;;23.40;51.40;;;;;;5025112;28;20193;-89
2022/03/29 08:42:12;;;;;;;2.33;2.13;;;23.30;51.30;;;;;;5015937;28;20181;-89
2022/03/29 08:44:39;;;;;;;2.10;1.90;;;23.40;51.40;;;;;;4990201;28;20181;-89
2022/03/29 08:47:09;;;;;;;2.00;1.90;;;23.40;51.40;;;;;;4989032;28;20431;-89
2022/03/29 08:49:35;;;;;;;2.57;1.93;;;23.40;51.40;;;;;;4989565;28;20940;-89
2022/03/29 08:52:03;;;;;;;1.80;1.70;;;23.30;51.30;;;;;;5005222;28;20433;-89
2022/03/29 08:54:29;;;;;;;2.20;2.00;;;23.40;51.40;;;;;;4989059;28;20432;-89
2022/03/29 08:56:55;;;;;;;2.87;2.23;;;23.40;51.40;;;;;;4990094;28;20456;-89
2022/03/29 08:59:21;;;;;;;2.10;1.90;;;23.30;51.30;;;;;;4989312;28;20221;-89
2022/03/29 09:01:47;;;;;;;2.00;1.70;;;23.40;51.40;;;;;;4988153;28;20413;-90
2022/03/29 09:04:21;;;;;;;1.63;1.53;;;23.40;51.40;;;;;;4989424;28;20177;-90
2022/03/29 09:06:50;;;;;;;1.83;1.63;;;23.40;51.40;;;;;;4992714;28;20439;-88
2022/03/29 09:09:40;;;;;;;2.13;1.93;;;23.40;51.40;;;;;;5009554;28;20468;-89
2022/03/29 09:12:17;;;;;;;1.63;1.50;;;23.40;51.40;;;;;;5007443;28;20452;-89
2022/03/29 09:15:10;;;;;;;2.10;1.70;;;23.30;51.30;;;;;;5007688;28;20459;-90
2022/03/29 09:17:40;;;;;;;2.00;1.80;;;23.40;51.40;;;;;;4970455;28;20497;-89
2022/03/29 09:20:11;;;;;;;4.20;2.00;;;23.30;51.30;;;;;;4989896;28;20445;-90
2022/03/29 09:22:41;;;;;;;2.03;1.60;;;23.30;51.40;;;;;;4990274;28;20420;-90
2022/03/29 09:25:08;;;;;;;2.83;2.20;;;23.30;51.40;;;;;;4990809;28;20420;-89
2022/03/29 09:27:49;;;;;;;2.00;1.83;;;23.30;51.40;;;;;;4989467;28;20439;-89
2022/03/29 09:30:15;;;;;;;2.20;2.00;;;23.30;51.40;;;;;;4988870;28;20408;-90
2022/03/29 09:32:56;;;;;;;2.10;1.77;;;23.40;51.40;;;;;;4989877;28;20409;-90
2022/03/29 09:35:24;;;;;;;2.30;1.80;;;23.30;51.40;;;;;;4988616;28;20413;-90
2022/03/29 09:37:50;;;;;;;2.63;2.00;;;23.40;51.40;;;;;;4987990;28;20524;-90
2022/03/29 09:40:16;;;;;;;2.33;2.13;;;23.40;51.40;;;;;;4988741;28;20405;-90
2022/03/29 09:42:59;;;;;;;2.33;2.07;;;23.30;51.30;;;;;;5004164;28;20440;-89
2022/03/29 09:45:41;;;;;;;1.87;1.73;;;23.40;51.40;;;;;;4988238;28;20401;-89
2022/03/29 09:48:24;;;;;;;2.30;1.97;;;23.40;51.40;;;;;;4988835;28;20498;-89
2022/03/29 09:50:54;;;;;;;2.63;1.50;;;23.40;51.40;;;;;;4988550;28;20416;-90
2022/03/29 09:53:47;;;;;;;2.20;1.60;;;23.40;51.40;;;;;;4987948;28;20417;-90
2022/03/29 09:56:20;;;;;;;1.77;1.60;;;23.40;51.40;;;;;;4988562;28;20445;-91
2022/03/29 09:58:46;;;;;;;1.70;1.60;;;23.40;51.40;;;;;;5005897;28;20419;-91
2022/03/29 10:01:25;;;;;;;2.17;1.97;;;23.40;51.40;;;;;;5006971;28;20415;-90
2022/03/29 10:03:58;;;;;;;2.50;2.17;;;23.40;51.30;;;;;;5007353;28;20415;-91
2022/03/29 10:06:33;;;;;;;2.00;1.80;;;23.40;51.30;;;;;;5024504;28;20480;-89
2022/03/29 10:11:46;;;;;;;2.03;1.83;;;23.40;51.30;;;;;;5007263;28;20478;-91
2022/03/29 10:14:14;;;;;;;2.23;1.70;;;23.40;51.30;;;;;;5007423;28;20424;-90
2022/03/29 10:16:42;;;;;;;2.00;1.73;;;23.40;51.30;;;;;;5006951;28;20487;-90
2022/03/29 10:19:10;;;;;;;2.30;2.10;;;23.40;51.30;;;;;;5007513;28;20404;-91
2022/03/29 10:21:41;;;;;;;2.00;1.70;;;23.40;51.30;;;;;;5007866;28;20404;-91
2022/03/29 10:24:07;;;;;;;1.63;1.50;;;23.40;51.30;;;;;;5006721;28;20412;-90
2022/03/29 10:26:34;;;;;;;2.50;1.90;;;23.40;51.30;;;;;;5008369;28;20433;-91
2022/03/29 10:29:07;;;;;;;1.97;1.87;;;23.40;51.30;;;;;;4988729;28;20445;-90
2022/03/29 10:31:33;;;;;;;2.50;1.63;;;23.40;51.30;;;;;;4988420;28;20425;-90
2022/03/29 10:34:25;;;;;;;2.40;1.97;;;23.40;51.30;;;;;;4989459;28;20464;-90
2022/03/29 10:37:45;;;;;;;3.43;2.47;;;23.40;51.30;;;;;;4995798;28;20457;-92
2022/03/29 10:44:26;;;;;;;16.63;5.40;;;23.40;51.30;;;;;;4954820;29;20407;-90
2022/03/29 10:46:52;;;;;;;11.00;6.53;;;23.40;51.30;;;;;;4954155;29;20423;-90
2022/03/29 10:49:18;;;;;;;16.80;8.53;;;23.40;51.40;;;;;;4954003;29;20395;-90
2022/03/29 10:51:44;;;;;;;17.67;6.63;;;23.40;51.40;;;;;;4953072;29;20175;-90
2022/03/29 10:54:30;;;;;;;13.83;7.70;;;23.40;51.40;;;;;;4951963;29;20411;-89
2022/03/29 10:57:03;;;;;;;21.50;9.40;;;23.40;51.40;;;;;;4952549;29;20454;-90
2022/03/29 10:59:30;;;;;;;22.30;9.90;;;23.40;51.40;;;;;;4951300;29;20956;-90
2022/03/29 11:02:12;;;;;;;19.93;9.60;;;23.40;51.40;;;;;;4952770;29;20403;-90
2022/03/29 11:05:00;;;;;;;21.03;10.63;;;23.40;51.40;;;;;;4954742;29;20419;-90
2022/03/29 11:07:26;;;;;;;15.53;9.17;;;23.40;51.30;;;;;;4954096;29;20445;-90
2022/03/29 11:10:07;;;;;;;22.40;10.73;;;23.40;51.30;;;;;;4953414;29;20513;-90
2022/03/29 11:12:51;;;;;;;21.57;9.83;;;23.40;51.30;;;;;;4951929;29;20450;-90
2022/03/29 11:15:32;;;;;;;19.90;10.23;;;23.40;51.30;;;;;;4951898;29;20442;-90
2022/03/29 11:18:01;;;;;;;23.37;11.43;;;23.40;51.40;;;;;;4952358;29;20414;-90
2022/03/29 11:20:30;;;;;;;23.47;9.97;;;23.40;51.40;;;;;;4989282;28;20416;-90
2022/03/29 11:23:09;;;;;;;22.33;11.73;;;23.40;51.40;;;;;;5008113;28;20412;-90
2022/03/29 11:25:40;;;;;;;28.40;11.10;;;23.40;51.40;;;;;;5007549;28;20412;-89
2022/03/29 11:28:14;;;;;;;16.70;11.07;;;23.40;51.40;;;;;;4991566;28;20452;-90
2022/03/29 11:30:44;;;;;;;17.10;10.03;;;23.40;51.40;;;;;;5006921;28;20416;-90
2022/03/29 11:33:11;;;;;;;22.03;10.40;;;23.40;51.30;;;;;;5010152;28;20450;-90
2022/03/29 11:35:39;;;;;;;19.13;10.40;;;23.40;51.30;;;;;;5010824;28;20420;-90
2022/03/29 11:38:13;;;;;;;21.20;11.90;;;23.40;51.30;;;;;;5011237;28;20416;-90
2022/03/29 11:40:39;;;;;;;20.53;11.33;;;23.40;51.40;;;;;;5010963;28;20984;-90
2022/03/29 11:43:12;;;;;;;20.07;10.07;;;23.40;51.40;;;;;;5010392;28;20495;-90
2022/03/29 11:45:44;;;;;;;21.90;10.63;;;23.40;51.40;;;;;;5011714;28;20420;-90
2022/03/29 11:48:17;;;;;;;24.87;10.03;;;23.40;51.40;;;;;;5007961;28;20790;-90
2022/03/29 11:50:51;;;;;;;23.53;12.00;;;23.40;51.40;;;;;;5009781;28;20432;-90
2022/03/29 11:53:31;;;;;;;20.90;12.10;;;23.40;51.40;;;;;;5007258;28;20953;-90
2022/03/29 11:56:07;;;;;;;21.40;10.40;;;23.40;51.40;;;;;;5006536;28;20499;-90
2022/03/29 11:58:40;;;;;;;19.10;10.10;;;23.40;51.40;;;;;;5006458;28;20479;-90
2022/03/29 12:01:15;;;;;;;22.20;10.90;;;23.40;51.40;;;;;;5006026;28;20454;-90
2022/03/29 12:03:54;;;;;;;19.90;10.73;;;23.40;51.50;;;;;;5006667;28;20476;-90
2022/03/29 12:06:28;;;;;;;24.73;10.30;;;23.40;51.50;;;;;;5008053;28;20416;-90
2022/03/29 12:09:05;;;;;;;19.37;10.27;;;23.40;51.50;;;;;;5007497;28;20389;-90
2022/03/29 12:11:33;;;;;;;17.83;8.80;;;23.40;51.50;;;;;;5005707;28;20507;-90
2022/03/29 12:14:09;;;;;;;24.73;10.53;;;23.40;51.50;;;;;;5007024;28;20508;-90
2022/03/29 12:16:41;;;;;;;19.30;10.50;;;23.40;51.50;;;;;;5007198;28;20463;-90
2022/03/29 12:19:15;;;;;;;21.23;10.83;;;23.40;51.50;;;;;;5008259;28;20416;-90
2022/03/29 12:21:44;;;;;;;17.70;9.87;;;23.40;51.50;;;;;;5006381;28;20475;-90
2022/03/29 12:24:11;;;;;;;20.27;13.30;;;23.40;51.50;;;;;;5006170;28;20431;-90
2022/03/29 12:26:47;;;;;;;19.03;10.00;;;23.40;51.50;;;;;;5006142;28;20937;-90
2022/03/29 12:29:17;;;;;;;23.33;11.07;;;23.40;51.50;;;;;;5006965;28;20415;-90
2022/03/29 12:31:44;;;;;;;19.10;10.33;;;23.40;51.50;;;;;;5006386;28;20436;-89
2022/03/29 12:34:14;;;;;;;16.13;9.37;;;23.40;51.50;;;;;;5007025;28;20435;-89
2022/03/29 12:36:50;;;;;;;19.60;9.83;;;23.40;51.50;;;;;;5005938;28;20977;-88
2022/03/29 12:39:16;;;;;;;19.63;10.00;;;23.40;51.50;;;;;;5006452;28;20933;-88
2022/03/29 12:41:53;;;;;;;15.93;9.23;;;23.40;51.60;;;;;;5006246;28;20420;-89
2022/03/29 12:44:37;;;;;;;16.03;10.03;;;23.40;51.50;;;;;;5005912;28;20523;-89
2022/03/29 12:47:04;;;;;;;24.40;10.30;;;23.40;51.60;;;;;;5005462;28;20463;-88
2022/03/29 12:49:35;;;;;;;19.80;10.53;;;23.30;51.50;;;;;;4990449;28;20432;-90
2022/03/29 12:55:31;;;;;;;16.73;10.23;;;23.40;51.50;;;;;;5007036;28;20435;-90
2022/03/29 12:58:03;;;;;;;18.87;9.47;;;23.40;51.60;;;;;;5007908;28;20427;-89
2022/03/29 13:00:41;;;;;;;17.00;7.90;;;23.30;51.40;;;;;;5009147;28;20408;-89
2022/03/29 13:03:08;;;;;;;17.87;8.80;;;23.40;51.50;;;;;;5009165;28;20411;-89
2022/03/29 13:05:35;;;;;;;16.33;8.80;;;23.30;51.40;;;;;;5009233;28;20404;-89
2022/03/29 13:08:02;;;;;;;14.73;8.97;;;23.40;51.50;;;;;;5009182;28;20405;-88
2022/03/29 13:10:32;;;;;;;18.33;9.90;;;23.30;51.40;;;;;;5009523;28;20483;-89
2022/03/29 13:13:06;;;;;;;20.33;8.63;;;23.30;51.40;;;;;;5009102;28;20455;-90
2022/03/29 13:15:37;;;;;;;15.33;9.40;;;23.40;51.50;;;;;;5008369;28;20423;-89
2022/03/29 13:18:25;;;;;;;17.40;9.33;;;23.40;51.50;;;;;;5008144;28;20427;-89
2022/03/29 13:20:53;;;;;;;15.17;8.13;;;23.40;51.50;;;;;;5009592;28;20403;-88
2022/03/29 13:23:58;;;;;;;14.83;8.97;;;23.30;51.40;;;;;;5008641;28;20420;-90
2022/03/29 13:26:27;;;;;;;16.47;8.90;;;23.40;51.50;;;;;;4991568;28;20427;-89
2022/03/29 13:28:54;;;;;;;14.30;8.43;;;23.40;51.60;;;;;;5009859;28;20551;-89
2022/03/29 13:31:23;;;;;;;15.37;9.00;;;23.30;51.50;;;;;;5008136;28;20500;-91
2022/03/29 13:33:52;;;;;;;14.50;8.30;;;23.30;51.50;;;;;;5010337;28;20408;-88
2022/03/29 13:36:20;;;;;;;13.80;8.43;;;23.30;51.50;;;;;;5009532;28;20455;-89
2022/03/29 13:38:48;;;;;;;16.33;8.37;;;23.30;51.50;;;;;;5009078;28;20436;-88
2022/03/29 13:41:14;;;;;;;15.60;8.93;;;23.30;51.40;;;;;;5010093;28;20424;-88